sensor_id;sensor_type;location;lat;lon;timestamp;pressure;altitude;pressure_sealevel;temperature;humidity
22333;BME280;11334;36.986;-121.936;2023-05-02T00:00:22;100625.28;;;16.13;63.25
22333;BME280;11334;36.986;-121.936;2023-05-02T00:02:49;100637.00;;;16.12;65.26
22333;BME280;11334;36.986;-121.936;2023-05-02T00:05:15;100633.00;;;16.02;63.60
22333;BME280;11334;36.986;-121.936;2023-05-02T00:07:41;100627.28;;;16.05;65.68
22333;BME280;11334;36.986;-121.936;2023-05-02T00:10:08;100626.59;;;15.96;62.73
22333;BME280;11334;36.986;-121.936;2023-05-02T00:12:34;100621.25;;;15.96;63.15
22333;BME280;11334;36.986;-121.936;2023-05-02T00:15:01;100628.31;;;16.04;64.93
22333;BME280;11334;36.986;-121.936;2023-05-02T00:17:27;100623.56;;;16.06;63.85
22333;BME280;11334;36.986;-121.936;2023-05-02T00:19:53;100623.81;;;16.11;61.80
22333;BME280;11334;36.986;-121.936;2023-05-02T00:22:20;100624.66;;;16.11;62.41
22333;BME280;11334;36.986;-121.936;2023-05-02T00:24:46;100620.13;;;16.12;62.52
22333;BME280;11334;36.986;-121.936;2023-05-02T00:27:12;100616.66;;;16.11;62.62
22333;BME280;11334;36.986;-121.936;2023-05-02T00:29:39;100618.13;;;16.13;63.04
22333;BME280;11334;36.986;-121.936;2023-05-02T00:32:06;100627.84;;;16.00;62.74
22333;BME280;11334;36.986;-121.936;2023-05-02T00:34:32;100628.38;;;15.89;62.55
22333;BME280;11334;36.986;-121.936;2023-05-02T00:36:58;100628.22;;;15.70;62.97
22333;BME280;11334;36.986;-121.936;2023-05-02T00:39:24;100621.56;;;15.60;64.05
22333;BME280;11334;36.986;-121.936;2023-05-02T00:41:57;100616.59;;;15.57;64.27
22333;BME280;11334;36.986;-121.936;2023-05-02T00:44:24;100617.84;;;15.61;64.55
22333;BME280;11334;36.986;-121.936;2023-05-02T00:46:56;100620.78;;;15.66;64.98
22333;BME280;11334;36.986;-121.936;2023-05-02T00:49:23;100619.38;;;15.70;64.82
22333;BME280;11334;36.986;-121.936;2023-05-02T00:51:49;100620.09;;;15.57;63.71
22333;BME280;11334;36.986;-121.936;2023-05-02T00:54:16;100623.97;;;15.55;62.42
22333;BME280;11334;36.986;-121.936;2023-05-02T00:56:42;100618.16;;;15.51;63.26
22333;BME280;11334;36.986;-121.936;2023-05-02T00:59:09;100618.13;;;15.45;63.45
22333;BME280;11334;36.986;-121.936;2023-05-02T01:02:09;100610.50;;;15.42;64.22
22333;BME280;11334;36.986;-121.936;2023-05-02T01:05:13;100612.00;;;15.51;65.63
22333;BME280;11334;36.986;-121.936;2023-05-02T01:07:59;100614.34;;;15.60;66.02
22333;BME280;11334;36.986;-121.936;2023-05-02T01:10:41;100607.63;;;15.64;65.81
22333;BME280;11334;36.986;-121.936;2023-05-02T01:13:20;100605.94;;;15.63;67.35
22333;BME280;11334;36.986;-121.936;2023-05-02T01:15:49;100608.63;;;15.63;68.62
22333;BME280;11334;36.986;-121.936;2023-05-02T01:18:21;100613.34;;;15.41;72.58
22333;BME280;11334;36.986;-121.936;2023-05-02T01:20:52;100619.69;;;15.19;78.89
22333;BME280;11334;36.986;-121.936;2023-05-02T01:26:49;100621.22;;;14.79;85.00
22333;BME280;11334;36.986;-121.936;2023-05-02T01:29:17;100612.69;;;14.69;87.05
22333;BME280;11334;36.986;-121.936;2023-05-02T01:31:48;100609.91;;;14.77;86.31
22333;BME280;11334;36.986;-121.936;2023-05-02T01:34:19;100600.44;;;14.74;85.31
22333;BME280;11334;36.986;-121.936;2023-05-02T01:36:47;100616.16;;;14.84;84.17
22333;BME280;11334;36.986;-121.936;2023-05-02T01:39:20;100611.91;;;14.89;85.87
22333;BME280;11334;36.986;-121.936;2023-05-02T01:41:52;100605.47;;;15.12;82.29
22333;BME280;11334;36.986;-121.936;2023-05-02T01:44:21;100599.09;;;15.34;78.79
22333;BME280;11334;36.986;-121.936;2023-05-02T01:46:48;100601.63;;;15.42;78.77
22333;BME280;11334;36.986;-121.936;2023-05-02T01:49:17;100589.84;;;15.30;76.55
22333;BME280;11334;36.986;-121.936;2023-05-02T01:51:48;100589.09;;;15.21;76.99
22333;BME280;11334;36.986;-121.936;2023-05-02T01:54:16;100592.13;;;14.98;78.05
22333;BME280;11334;36.986;-121.936;2023-05-02T01:56:44;100592.59;;;14.87;78.38
22333;BME280;11334;36.986;-121.936;2023-05-02T01:59:14;100594.41;;;14.66;77.09
22333;BME280;11334;36.986;-121.936;2023-05-02T02:01:42;100587.75;;;14.62;78.48
22333;BME280;11334;36.986;-121.936;2023-05-02T02:04:12;100584.81;;;14.57;77.61
22333;BME280;11334;36.986;-121.936;2023-05-02T02:06:43;100578.22;;;14.53;79.57
22333;BME280;11334;36.986;-121.936;2023-05-02T02:09:11;100588.25;;;14.51;78.78
22333;BME280;11334;36.986;-121.936;2023-05-02T02:11:46;100579.72;;;14.41;78.78
22333;BME280;11334;36.986;-121.936;2023-05-02T02:14:19;100596.63;;;14.34;79.87
22333;BME280;11334;36.986;-121.936;2023-05-02T02:16:47;100585.22;;;14.11;79.42
22333;BME280;11334;36.986;-121.936;2023-05-02T02:19:17;100585.50;;;14.16;81.47
22333;BME280;11334;36.986;-121.936;2023-05-02T02:21:47;100585.78;;;14.07;80.23
22333;BME280;11334;36.986;-121.936;2023-05-02T02:24:16;100568.47;;;14.03;80.43
22333;BME280;11334;36.986;-121.936;2023-05-02T02:26:45;100581.72;;;14.11;79.17
22333;BME280;11334;36.986;-121.936;2023-05-02T02:29:12;100575.75;;;14.09;81.53
22333;BME280;11334;36.986;-121.936;2023-05-02T02:31:38;100583.19;;;13.99;79.39
22333;BME280;11334;36.986;-121.936;2023-05-02T02:34:05;100583.41;;;13.89;79.40
22333;BME280;11334;36.986;-121.936;2023-05-02T02:36:56;100576.50;;;13.81;81.03
22333;BME280;11334;36.986;-121.936;2023-05-02T02:45:04;100576.78;;;13.71;82.74
22333;BME280;11334;36.986;-121.936;2023-05-02T02:47:52;100570.53;;;13.64;83.07
22333;BME280;11334;36.986;-121.936;2023-05-02T02:53:05;100572.06;;;13.59;84.99
22333;BME280;11334;36.986;-121.936;2023-05-02T02:55:46;100578.03;;;13.61;84.91
22333;BME280;11334;36.986;-121.936;2023-05-02T02:58:42;100572.53;;;13.62;85.82
22333;BME280;11334;36.986;-121.936;2023-05-02T03:01:16;100570.53;;;13.64;85.02
22333;BME280;11334;36.986;-121.936;2023-05-02T03:03:44;100571.59;;;13.56;85.30
22333;BME280;11334;36.986;-121.936;2023-05-02T03:06:12;100562.03;;;13.47;85.30
22333;BME280;11334;36.986;-121.936;2023-05-02T03:08:39;100570.78;;;13.55;86.64
22333;BME280;11334;36.986;-121.936;2023-05-02T03:11:06;100563.31;;;13.51;86.70
22333;BME280;11334;36.986;-121.936;2023-05-02T03:13:33;100562.50;;;13.50;86.54
22333;BME280;11334;36.986;-121.936;2023-05-02T03:18:57;100568.41;;;13.38;87.67
22333;BME280;11334;36.986;-121.936;2023-05-02T03:21:23;100563.16;;;13.30;88.31
22333;BME280;11334;36.986;-121.936;2023-05-02T03:23:49;100580.41;;;13.34;89.26
22333;BME280;11334;36.986;-121.936;2023-05-02T03:26:16;100560.16;;;13.33;90.06
22333;BME280;11334;36.986;-121.936;2023-05-02T03:28:42;100573.75;;;13.38;89.89
22333;BME280;11334;36.986;-121.936;2023-05-02T03:31:12;100577.47;;;13.29;90.77
22333;BME280;11334;36.986;-121.936;2023-05-02T03:33:41;100577.94;;;13.32;92.29
22333;BME280;11334;36.986;-121.936;2023-05-02T03:36:07;100578.03;;;13.39;92.02
22333;BME280;11334;36.986;-121.936;2023-05-02T03:38:33;100581.06;;;13.36;92.04
22333;BME280;11334;36.986;-121.936;2023-05-02T03:41:03;100574.75;;;13.37;93.78
22333;BME280;11334;36.986;-121.936;2023-05-02T03:43:29;100572.09;;;13.37;93.65
22333;BME280;11334;36.986;-121.936;2023-05-02T03:45:55;100574.56;;;13.38;95.49
22333;BME280;11334;36.986;-121.936;2023-05-02T03:48:22;100580.72;;;13.39;95.47
22333;BME280;11334;36.986;-121.936;2023-05-02T03:50:49;100570.91;;;13.39;95.81
22333;BME280;11334;36.986;-121.936;2023-05-02T03:53:15;100580.31;;;13.27;96.88
22333;BME280;11334;36.986;-121.936;2023-05-02T03:55:42;100586.03;;;13.39;93.42
22333;BME280;11334;36.986;-121.936;2023-05-02T03:58:09;100567.66;;;13.29;92.73
22333;BME280;11334;36.986;-121.936;2023-05-02T04:00:36;100580.03;;;13.23;93.71
22333;BME280;11334;36.986;-121.936;2023-05-02T04:03:03;100586.03;;;13.17;93.98
22333;BME280;11334;36.986;-121.936;2023-05-02T04:05:29;100573.91;;;13.14;94.44
22333;BME280;11334;36.986;-121.936;2023-05-02T04:07:56;100581.56;;;13.17;95.43
22333;BME280;11334;36.986;-121.936;2023-05-02T04:10:22;100575.16;;;13.26;93.48
22333;BME280;11334;36.986;-121.936;2023-05-02T04:12:48;100589.84;;;13.22;94.74
22333;BME280;11334;36.986;-121.936;2023-05-02T04:15:15;100584.16;;;13.25;93.90
22333;BME280;11334;36.986;-121.936;2023-05-02T04:17:41;100577.81;;;13.26;94.09
22333;BME280;11334;36.986;-121.936;2023-05-02T04:20:08;100579.66;;;13.26;94.73
22333;BME280;11334;36.986;-121.936;2023-05-02T04:22:34;100582.69;;;13.23;94.27
22333;BME280;11334;36.986;-121.936;2023-05-02T04:25:00;100586.88;;;13.17;95.82
22333;BME280;11334;36.986;-121.936;2023-05-02T04:27:27;100584.31;;;13.24;94.86
22333;BME280;11334;36.986;-121.936;2023-05-02T04:29:53;100580.19;;;13.21;94.88
22333;BME280;11334;36.986;-121.936;2023-05-02T04:32:19;100581.56;;;13.17;95.06
22333;BME280;11334;36.986;-121.936;2023-05-02T04:34:45;100583.22;;;13.18;95.14
22333;BME280;11334;36.986;-121.936;2023-05-02T04:37:11;100583.06;;;13.12;96.25
22333;BME280;11334;36.986;-121.936;2023-05-02T04:39:38;100577.28;;;13.08;96.58
22333;BME280;11334;36.986;-121.936;2023-05-02T04:42:04;100590.22;;;13.11;97.42
22333;BME280;11334;36.986;-121.936;2023-05-02T04:44:30;100584.56;;;13.14;96.29
22333;BME280;11334;36.986;-121.936;2023-05-02T04:46:56;100586.59;;;13.12;96.74
22333;BME280;11334;36.986;-121.936;2023-05-02T04:49:23;100591.53;;;13.15;96.92
22333;BME280;11334;36.986;-121.936;2023-05-02T04:51:49;100584.81;;;13.05;96.83
22333;BME280;11334;36.986;-121.936;2023-05-02T04:54:17;100590.75;;;13.07;97.38
22333;BME280;11334;36.986;-121.936;2023-05-02T04:56:43;100591.13;;;13.04;98.31
22333;BME280;11334;36.986;-121.936;2023-05-02T04:59:09;100590.75;;;13.07;97.48
22333;BME280;11334;36.986;-121.936;2023-05-02T05:01:35;100591.06;;;13.12;97.11
22333;BME280;11334;36.986;-121.936;2023-05-02T05:04:02;100589.72;;;13.16;97.00
22333;BME280;11334;36.986;-121.936;2023-05-02T05:06:28;100590.53;;;13.16;96.46
22333;BME280;11334;36.986;-121.936;2023-05-02T05:08:54;100587.56;;;13.11;96.39
22333;BME280;11334;36.986;-121.936;2023-05-02T05:11:20;100588.94;;;13.07;96.21
22333;BME280;11334;36.986;-121.936;2023-05-02T05:13:48;100576.94;;;13.11;96.43
22333;BME280;11334;36.986;-121.936;2023-05-02T05:16:14;100580.13;;;13.07;96.40
22333;BME280;11334;36.986;-121.936;2023-05-02T05:18:41;100587.56;;;13.11;96.46
22333;BME280;11334;36.986;-121.936;2023-05-02T05:21:08;100578.94;;;13.09;96.30
22333;BME280;11334;36.986;-121.936;2023-05-02T05:23:36;100590.22;;;13.11;96.40
22333;BME280;11334;36.986;-121.936;2023-05-02T05:26:09;100583.06;;;13.12;96.76
22333;BME280;11334;36.986;-121.936;2023-05-02T05:28:36;100585.22;;;13.16;96.36
22333;BME280;11334;36.986;-121.936;2023-05-02T05:31:09;100586.75;;;13.11;96.35
22333;BME280;11334;36.986;-121.936;2023-05-02T05:33:36;100581.59;;;13.09;96.90
22333;BME280;11334;36.986;-121.936;2023-05-02T05:36:08;100586.38;;;13.14;96.48
22333;BME280;11334;36.986;-121.936;2023-05-02T05:38:35;100584.56;;;13.14;96.44
22333;BME280;11334;36.986;-121.936;2023-05-02T05:41:02;100578.59;;;13.12;95.91
22333;BME280;11334;36.986;-121.936;2023-05-02T05:43:29;100580.41;;;13.12;96.10
22333;BME280;11334;36.986;-121.936;2023-05-02T05:45:56;100585.09;;;13.10;96.99
22333;BME280;11334;36.986;-121.936;2023-05-02T05:48:22;100574.63;;;13.08;97.52
22333;BME280;11334;36.986;-121.936;2023-05-02T05:50:49;100577.28;;;13.08;96.99
22333;BME280;11334;36.986;-121.936;2023-05-02T05:53:17;100577.88;;;13.18;95.81
22333;BME280;11334;36.986;-121.936;2023-05-02T05:55:44;100582.03;;;13.21;93.45
22333;BME280;11334;36.986;-121.936;2023-05-02T05:58:10;100572.56;;;13.18;93.32
22333;BME280;11334;36.986;-121.936;2023-05-02T06:00:37;100572.78;;;13.09;93.89
22333;BME280;11334;36.986;-121.936;2023-05-02T06:03:04;100571.31;;;13.06;95.46
22333;BME280;11334;36.986;-121.936;2023-05-02T06:05:31;100575.28;;;13.10;96.99
22333;BME280;11334;36.986;-121.936;2023-05-02T06:07:58;100572.63;;;13.10;97.20
22333;BME280;11334;36.986;-121.936;2023-05-02T06:10:25;100570.94;;;13.17;97.98
22333;BME280;11334;36.986;-121.936;2023-05-02T06:12:51;100579.06;;;13.16;97.23
22333;BME280;11334;36.986;-121.936;2023-05-02T06:15:17;100578.19;;;13.23;96.62
22333;BME280;11334;36.986;-121.936;2023-05-02T06:17:44;100569.53;;;13.21;97.26
22333;BME280;11334;36.986;-121.936;2023-05-02T06:20:10;100573.88;;;13.22;97.61
22333;BME280;11334;36.986;-121.936;2023-05-02T06:22:37;100575.97;;;13.26;96.36
22333;BME280;11334;36.986;-121.936;2023-05-02T06:25:04;100569.97;;;13.32;94.42
22333;BME280;11334;36.986;-121.936;2023-05-02T06:27:31;100573.53;;;13.25;95.34
22333;BME280;11334;36.986;-121.936;2023-05-02T06:29:58;100574.22;;;13.19;96.19
22333;BME280;11334;36.986;-121.936;2023-05-02T06:32:24;100577.44;;;13.15;98.51
22333;BME280;11334;36.986;-121.936;2023-05-02T06:34:51;100573.75;;;13.16;98.57
22333;BME280;11334;36.986;-121.936;2023-05-02T06:37:17;100574.69;;;13.23;97.89
22333;BME280;11334;36.986;-121.936;2023-05-02T06:39:43;100578.34;;;13.22;98.12
22333;BME280;11334;36.986;-121.936;2023-05-02T06:42:09;100569.03;;;13.26;98.05
22333;BME280;11334;36.986;-121.936;2023-05-02T06:44:35;100566.53;;;13.24;98.13
22333;BME280;11334;36.986;-121.936;2023-05-02T06:47:03;100576.47;;;13.30;98.07
22333;BME280;11334;36.986;-121.936;2023-05-02T06:49:30;100583.63;;;13.29;98.29
22333;BME280;11334;36.986;-121.936;2023-05-02T06:51:57;100567.47;;;13.31;97.15
22333;BME280;11334;36.986;-121.936;2023-05-02T06:54:23;100569.31;;;13.30;96.88
22333;BME280;11334;36.986;-121.936;2023-05-02T06:56:49;100571.81;;;13.32;98.11
22333;BME280;11334;36.986;-121.936;2023-05-02T06:59:16;100564.72;;;13.25;98.69
22333;BME280;11334;36.986;-121.936;2023-05-02T07:01:45;100567.47;;;13.31;98.85
22333;BME280;11334;36.986;-121.936;2023-05-02T07:04:11;100560.97;;;13.33;98.16
22333;BME280;11334;36.986;-121.936;2023-05-02T07:06:39;100559.78;;;13.36;98.92
22333;BME280;11334;36.986;-121.936;2023-05-02T07:09:05;100563.03;;;13.46;98.41
22333;BME280;11334;36.986;-121.936;2023-05-02T07:11:31;100559.25;;;13.40;99.49
22333;BME280;11334;36.986;-121.936;2023-05-02T07:13:57;100561.09;;;13.40;100.00
22333;BME280;11334;36.986;-121.936;2023-05-02T07:16:24;100564.41;;;13.42;100.00
22333;BME280;11334;36.986;-121.936;2023-05-02T07:18:50;100567.69;;;13.44;100.00
22333;BME280;11334;36.986;-121.936;2023-05-02T07:21:16;100556.75;;;13.39;100.00
22333;BME280;11334;36.986;-121.936;2023-05-02T07:23:43;100566.06;;;13.43;100.00
22333;BME280;11334;36.986;-121.936;2023-05-02T07:26:10;100564.41;;;13.42;100.00
22333;BME280;11334;36.986;-121.936;2023-05-02T07:28:36;100564.44;;;13.34;100.00
22333;BME280;11334;36.986;-121.936;2023-05-02T07:31:03;100556.47;;;13.34;100.00
22333;BME280;11334;36.986;-121.936;2023-05-02T07:33:29;100552.81;;;13.35;100.00
22333;BME280;11334;36.986;-121.936;2023-05-02T07:35:55;100560.50;;;13.30;99.48
22333;BME280;11334;36.986;-121.936;2023-05-02T07:38:21;100558.75;;;13.23;99.43
22333;BME280;11334;36.986;-121.936;2023-05-02T07:40:48;100551.41;;;13.25;99.35
22333;BME280;11334;36.986;-121.936;2023-05-02T07:43:14;100554.25;;;13.23;98.81
22333;BME280;11334;36.986;-121.936;2023-05-02T07:45:41;100550.63;;;13.16;99.42
22333;BME280;11334;36.986;-121.936;2023-05-02T07:48:07;100542.72;;;13.08;100.00
22333;BME280;11334;36.986;-121.936;2023-05-02T07:50:33;100551.81;;;13.14;100.00
22333;BME280;11334;36.986;-121.936;2023-05-02T07:52:59;100549.50;;;13.11;100.00
22333;BME280;11334;36.986;-121.936;2023-05-02T07:55:25;100550.47;;;13.18;100.00
22333;BME280;11334;36.986;-121.936;2023-05-02T07:57:52;100547.66;;;13.11;100.00
22333;BME280;11334;36.986;-121.936;2023-05-02T08:00:18;100546.56;;;13.06;100.00
22333;BME280;11334;36.986;-121.936;2023-05-02T08:02:45;100542.56;;;13.10;100.00
22333;BME280;11334;36.986;-121.936;2023-05-02T08:05:11;100544.91;;;13.05;100.00
22333;BME280;11334;36.986;-121.936;2023-05-02T08:07:38;100546.09;;;13.02;100.00
22333;BME280;11334;36.986;-121.936;2023-05-02T08:10:07;100540.28;;;12.99;100.00
22333;BME280;11334;36.986;-121.936;2023-05-02T08:12:41;100530.31;;;13.01;100.00
22333;BME280;11334;36.986;-121.936;2023-05-02T08:15:08;100534.16;;;12.98;100.00
22333;BME280;11334;36.986;-121.936;2023-05-02T08:17:36;100533.19;;;12.92;100.00
22333;BME280;11334;36.986;-121.936;2023-05-02T08:20:03;100528.16;;;12.96;100.00
22333;BME280;11334;36.986;-121.936;2023-05-02T08:22:29;100530.16;;;12.94;100.00
22333;BME280;11334;36.986;-121.936;2023-05-02T08:24:56;100529.19;;;12.95;100.00
22333;BME280;11334;36.986;-121.936;2023-05-02T08:27:22;100530.88;;;12.89;100.00
22333;BME280;11334;36.986;-121.936;2023-05-02T08:29:48;100517.59;;;12.89;100.00
22333;BME280;11334;36.986;-121.936;2023-05-02T08:32:14;100528.75;;;12.84;100.00
22333;BME280;11334;36.986;-121.936;2023-05-02T08:34:40;100531.59;;;12.83;100.00
22333;BME280;11334;36.986;-121.936;2023-05-02T08:37:09;100528.09;;;12.82;100.00
22333;BME280;11334;36.986;-121.936;2023-05-02T08:39:36;100520.84;;;12.76;100.00
22333;BME280;11334;36.986;-121.936;2023-05-02T08:42:09;100527.63;;;12.79;100.00
22333;BME280;11334;36.986;-121.936;2023-05-02T08:44:36;100522.66;;;12.76;100.00
22333;BME280;11334;36.986;-121.936;2023-05-02T08:47:02;100524.31;;;12.77;100.00
22333;BME280;11334;36.986;-121.936;2023-05-02T08:49:31;100513.03;;;12.67;100.00
22333;BME280;11334;36.986;-121.936;2023-05-02T08:52:00;100513.53;;;12.70;100.00
22333;BME280;11334;36.986;-121.936;2023-05-02T08:54:28;100522.78;;;12.82;100.00
22333;BME280;11334;36.986;-121.936;2023-05-02T08:56:55;100519.28;;;12.82;100.00
22333;BME280;11334;36.986;-121.936;2023-05-02T08:59:24;100511.88;;;12.69;100.00
22333;BME280;11334;36.986;-121.936;2023-05-02T09:01:54;100515.19;;;12.71;100.00
22333;BME280;11334;36.986;-121.936;2023-05-02T09:04:29;100516.38;;;12.69;100.00
22333;BME280;11334;36.986;-121.936;2023-05-02T09:06:57;100518.19;;;12.76;100.00
22333;BME280;11334;36.986;-121.936;2023-05-02T09:09:24;100514.81;;;12.74;100.00
22333;BME280;11334;36.986;-121.936;2023-05-02T09:11:51;100511.72;;;12.71;100.00
22333;BME280;11334;36.986;-121.936;2023-05-02T09:14:17;100501.25;;;12.69;100.00
22333;BME280;11334;36.986;-121.936;2023-05-02T09:16:44;100503.91;;;12.69;100.00
22333;BME280;11334;36.986;-121.936;2023-05-02T09:19:10;100509.47;;;12.60;100.00
22333;BME280;11334;36.986;-121.936;2023-05-02T09:21:48;100504.97;;;12.61;100.00
22333;BME280;11334;36.986;-121.936;2023-05-02T09:24:19;100489.91;;;12.53;100.00
22333;BME280;11334;36.986;-121.936;2023-05-02T09:26:57;100496.34;;;12.59;100.00
22333;BME280;11334;36.986;-121.936;2023-05-02T09:29:23;100504.31;;;12.59;100.00
22333;BME280;11334;36.986;-121.936;2023-05-02T09:31:50;100500.53;;;12.53;100.00
22333;BME280;11334;36.986;-121.936;2023-05-02T09:34:16;100485.91;;;12.49;100.00
22333;BME280;11334;36.986;-121.936;2023-05-02T09:36:48;100495.00;;;12.55;100.00
22333;BME280;11334;36.986;-121.936;2023-05-02T09:39:23;100492.91;;;12.50;100.00
22333;BME280;11334;36.986;-121.936;2023-05-02T09:41:49;100494.38;;;12.53;100.00
22333;BME280;11334;36.986;-121.936;2023-05-02T09:44:18;100492.91;;;12.50;100.00
22333;BME280;11334;36.986;-121.936;2023-05-02T09:46:54;100496.19;;;12.52;100.00
22333;BME280;11334;36.986;-121.936;2023-05-02T09:49:45;100494.19;;;12.54;100.00
22333;BME280;11334;36.986;-121.936;2023-05-02T09:52:16;100499.50;;;12.54;100.00
22333;BME280;11334;36.986;-121.936;2023-05-02T09:54:42;100488.22;;;12.52;100.00
22333;BME280;11334;36.986;-121.936;2023-05-02T09:57:09;100493.44;;;12.46;100.00
22333;BME280;11334;36.986;-121.936;2023-05-02T09:59:35;100488.28;;;12.44;100.00
22333;BME280;11334;36.986;-121.936;2023-05-02T10:02:03;100502.56;;;12.43;100.00
22333;BME280;11334;36.986;-121.936;2023-05-02T10:04:33;100500.59;;;12.45;100.00
22333;BME280;11334;36.986;-121.936;2023-05-02T10:07:01;100498.25;;;12.42;100.00
22333;BME280;11334;36.986;-121.936;2023-05-02T10:09:28;100499.41;;;12.48;100.00
22333;BME280;11334;36.986;-121.936;2023-05-02T10:12:01;100492.91;;;12.50;100.00
22333;BME280;11334;36.986;-121.936;2023-05-02T10:14:38;100501.56;;;12.44;100.00
22333;BME280;11334;36.986;-121.936;2023-05-02T10:17:13;100497.91;;;12.45;100.00
22333;BME280;11334;36.986;-121.936;2023-05-02T10:20:02;100499.41;;;12.48;100.00
22333;BME280;11334;36.986;-121.936;2023-05-02T10:22:33;100497.31;;;12.35;100.00
22333;BME280;11334;36.986;-121.936;2023-05-02T10:25:01;100496.59;;;12.41;100.00
22333;BME280;11334;36.986;-121.936;2023-05-02T10:27:31;100491.81;;;12.37;100.00
22333;BME280;11334;36.986;-121.936;2023-05-02T10:29:58;100503.78;;;12.33;100.00
22333;BME280;11334;36.986;-121.936;2023-05-02T10:32:28;100498.28;;;12.34;100.00
22333;BME280;11334;36.986;-121.936;2023-05-02T10:35:02;100505.28;;;12.35;100.00
22333;BME280;11334;36.986;-121.936;2023-05-02T10:37:30;100499.34;;;12.26;100.00
22333;BME280;11334;36.986;-121.936;2023-05-02T10:40:00;100502.13;;;12.32;100.00
22333;BME280;11334;36.986;-121.936;2023-05-02T10:42:27;100497.81;;;12.31;100.00
22333;BME280;11334;36.986;-121.936;2023-05-02T10:44:55;100498.50;;;12.33;100.00
22333;BME280;11334;36.986;-121.936;2023-05-02T10:47:23;100495.84;;;12.33;100.00
22333;BME280;11334;36.986;-121.936;2023-05-02T10:50:00;100489.84;;;12.31;100.00
22333;BME280;11334;36.986;-121.936;2023-05-02T10:52:37;100498.13;;;12.36;100.00
22333;BME280;11334;36.986;-121.936;2023-05-02T10:55:18;100496.28;;;12.36;100.00
22333;BME280;11334;36.986;-121.936;2023-05-02T11:00:32;100500.28;;;12.32;100.00
22333;BME280;11334;36.986;-121.936;2023-05-02T11:02:59;100496.66;;;12.33;100.00
22333;BME280;11334;36.986;-121.936;2023-05-02T11:05:26;100489.16;;;12.37;100.00
22333;BME280;11334;36.986;-121.936;2023-05-02T11:08:31;100484.84;;;12.36;100.00
22333;BME280;11334;36.986;-121.936;2023-05-02T11:24:53;100459.50;;;12.26;100.00
22333;BME280;11334;36.986;-121.936;2023-05-02T11:30:05;100466.59;;;12.33;100.00
22333;BME280;11334;36.986;-121.936;2023-05-02T11:35:23;100475.44;;;12.26;100.00
22333;BME280;11334;36.986;-121.936;2023-05-02T11:37:58;100477.03;;;12.34;100.00
22333;BME280;11334;36.986;-121.936;2023-05-02T11:40:26;100475.25;;;12.27;100.00
22333;BME280;11334;36.986;-121.936;2023-05-02T11:42:53;100477.75;;;12.29;100.00
22333;BME280;11334;36.986;-121.936;2023-05-02T11:45:20;100485.06;;;12.27;100.00
22333;BME280;11334;36.986;-121.936;2023-05-02T11:47:47;100480.53;;;12.35;100.00
22333;BME280;11334;36.986;-121.936;2023-05-02T11:50:14;100488.19;;;12.30;100.00
22333;BME280;11334;36.986;-121.936;2023-05-02T11:52:42;100478.06;;;12.33;100.00
22333;BME280;11334;36.986;-121.936;2023-05-02T11:55:13;100477.88;;;12.35;100.00
22333;BME280;11334;36.986;-121.936;2023-05-02T11:57:40;100473.41;;;12.35;100.00
22333;BME280;11334;36.986;-121.936;2023-05-02T12:00:07;100470.59;;;12.29;100.00
22333;BME280;11334;36.986;-121.936;2023-05-02T12:02:40;100475.56;;;12.32;100.00
22333;BME280;11334;36.986;-121.936;2023-05-02T12:05:08;100470.25;;;12.32;100.00
22333;BME280;11334;36.986;-121.936;2023-05-02T12:07:45;100472.25;;;12.30;100.00
22333;BME280;11334;36.986;-121.936;2023-05-02T12:10:12;100468.81;;;12.22;100.00
22333;BME280;11334;36.986;-121.936;2023-05-02T12:12:40;100484.03;;;12.28;100.00
22333;BME280;11334;36.986;-121.936;2023-05-02T12:15:08;100474.75;;;12.31;100.00
22333;BME280;11334;36.986;-121.936;2023-05-02T12:17:40;100490.69;;;12.31;100.00
22333;BME280;11334;36.986;-121.936;2023-05-02T12:20:08;100487.72;;;12.27;100.00
22333;BME280;11334;36.986;-121.936;2023-05-02T12:22:35;100488.88;;;12.24;100.00
22333;BME280;11334;36.986;-121.936;2023-05-02T12:25:03;100494.03;;;12.26;100.00
22333;BME280;11334;36.986;-121.936;2023-05-02T12:27:30;100491.41;;;12.18;100.00
22333;BME280;11334;36.986;-121.936;2023-05-02T12:30:00;100491.59;;;12.16;100.00
22333;BME280;11334;36.986;-121.936;2023-05-02T12:32:30;100477.13;;;12.19;100.00
22333;BME280;11334;36.986;-121.936;2023-05-02T12:34:58;100481.94;;;12.23;100.00
22333;BME280;11334;36.986;-121.936;2023-05-02T12:37:25;100481.44;;;12.20;100.00
22333;BME280;11334;36.986;-121.936;2023-05-02T12:39:52;100470.19;;;12.10;100.00
22333;BME280;11334;36.986;-121.936;2023-05-02T12:42:23;100479.59;;;12.20;100.00
22333;BME280;11334;36.986;-121.936;2023-05-02T12:44:50;100479.47;;;12.14;100.00
22333;BME280;11334;36.986;-121.936;2023-05-02T12:47:18;100483.63;;;12.16;100.00
22333;BME280;11334;36.986;-121.936;2023-05-02T12:49:56;100481.13;;;12.15;100.00
22333;BME280;11334;36.986;-121.936;2023-05-02T12:55:20;100482.50;;;12.11;100.00
22333;BME280;11334;36.986;-121.936;2023-05-02T12:57:49;100485.31;;;12.09;100.00
22333;BME280;11334;36.986;-121.936;2023-05-02T13:00:16;100485.31;;;12.09;100.00
22333;BME280;11334;36.986;-121.936;2023-05-02T13:02:43;100480.16;;;12.08;100.00